createdAt,value
2022-08-26T00:00:15.986Z,35.65
2022-08-26T00:03:08.427Z,35.90
2022-08-26T00:05:41.912Z,36.13
2022-08-26T00:08:15.927Z,36.61
2022-08-26T00:10:48.391Z,36.96
2022-08-26T00:13:22.103Z,37.23
2022-08-26T00:15:54.261Z,37.53
2022-08-26T00:18:26.538Z,37.65
2022-08-26T00:20:58.667Z,37.84
2022-08-26T00:23:31.262Z,38.05
2022-08-26T00:26:05.281Z,37.99
2022-08-26T00:28:40.607Z,37.99
2022-08-26T00:31:12.855Z,37.94
2022-08-26T00:33:45.384Z,37.64
2022-08-26T00:36:20.262Z,37.68
2022-08-26T00:38:53.030Z,37.68
2022-08-26T00:41:25.155Z,37.62
2022-08-26T00:43:57.972Z,37.58
2022-08-26T00:46:35.305Z,37.62
2022-08-26T00:49:13.648Z,37.67
2022-08-26T00:51:50.027Z,37.78
2022-08-26T00:54:26.896Z,37.78
2022-08-26T00:57:02.629Z,37.68
2022-08-26T00:59:38.838Z,37.71
2022-08-26T01:02:21.236Z,37.60
2022-08-26T01:04:56.487Z,37.57
2022-08-26T01:07:31.448Z,37.58
2022-08-26T01:10:07.792Z,37.43
2022-08-26T01:12:44.095Z,37.48
2022-08-26T01:15:20.908Z,37.32
2022-08-26T01:17:51.358Z,37.17
2022-08-26T01:20:35.365Z,37.18
2022-08-26T01:23:10.022Z,37.30
2022-08-26T01:25:45.415Z,37.17
2022-08-26T01:28:22.849Z,37.25
2022-08-26T01:30:57.984Z,37.17
2022-08-26T01:33:42.176Z,37.30
2022-08-26T01:36:16.379Z,37.09
2022-08-26T01:38:48.632Z,37.20
2022-08-26T01:41:27.492Z,37.45
2022-08-26T01:44:03.052Z,37.41
2022-08-26T01:46:36.214Z,37.58
2022-08-26T01:49:11.477Z,37.63
2022-08-26T01:51:44.563Z,37.58
2022-08-26T01:54:17.171Z,37.56
2022-08-26T01:56:53.974Z,37.64
2022-08-26T01:59:26.621Z,37.73
2022-08-26T02:01:59.417Z,37.69
2022-08-26T02:04:35.968Z,37.55
2022-08-26T02:07:10.529Z,37.53
2022-08-26T02:09:44.267Z,37.54
2022-08-26T02:12:19.547Z,37.52
2022-08-26T02:14:55.133Z,37.50
2022-08-26T02:17:41.279Z,37.37
2022-08-26T02:20:17.034Z,37.32
2022-08-26T02:22:50.026Z,37.33
2022-08-26T02:25:27.202Z,37.27
2022-08-26T02:27:59.662Z,37.25
2022-08-26T02:30:34.811Z,37.28
2022-08-26T02:33:08.538Z,37.31
2022-08-26T02:35:41.860Z,37.31
2022-08-26T02:38:14.117Z,37.31
2022-08-26T02:40:46.161Z,37.37
2022-08-26T02:43:31.471Z,37.54
2022-08-26T02:46:04.955Z,37.39
2022-08-26T02:48:37.607Z,37.63
2022-08-26T02:51:09.847Z,37.46
2022-08-26T02:53:42.331Z,37.38
2022-08-26T02:56:14.804Z,37.43
2022-08-26T02:58:47.680Z,37.32
2022-08-26T03:01:35.228Z,37.62
2022-08-26T03:04:12.379Z,37.54
2022-08-26T03:06:52.636Z,37.58
2022-08-26T03:09:25.899Z,37.85
2022-08-26T03:11:58.279Z,38.06
2022-08-26T03:14:30.635Z,38.09
2022-08-26T03:17:02.760Z,38.00
2022-08-26T03:19:36.099Z,38.03
2022-08-26T03:22:08.743Z,38.00
2022-08-26T03:24:41.009Z,37.96
2022-08-26T03:27:19.122Z,38.00
2022-08-26T03:30:08.663Z,38.21
2022-08-26T03:32:44.629Z,38.25
2022-08-26T03:35:16.649Z,38.21
2022-08-26T03:37:48.725Z,38.45
2022-08-26T03:40:22.359Z,38.43
2022-08-26T03:42:55.002Z,38.52
2022-08-26T03:45:27.492Z,38.53
2022-08-26T03:47:59.885Z,38.59
2022-08-26T03:50:34.299Z,38.54
2022-08-26T03:53:12.807Z,38.74
2022-08-26T03:55:45.984Z,38.96
2022-08-26T03:58:18.653Z,39.30
2022-08-26T04:00:55.580Z,39.66
2022-08-26T04:03:45.550Z,40.03
2022-08-26T04:06:18.195Z,40.25
2022-08-26T04:08:50.332Z,40.47
2022-08-26T04:11:24.818Z,41.18
2022-08-26T04:13:57.439Z,41.90
2022-08-26T04:16:32.746Z,42.36
2022-08-26T04:19:05.424Z,42.79
2022-08-26T04:21:38.586Z,43.23
2022-08-26T04:24:12.505Z,43.59
2022-08-26T04:26:46.244Z,43.89
2022-08-26T04:29:21.540Z,44.11
2022-08-26T04:31:56.220Z,44.33
2022-08-26T04:34:30.331Z,44.39
2022-08-26T04:37:02.667Z,44.27
2022-08-26T04:39:35.802Z,43.78
2022-08-26T04:42:08.931Z,43.16
2022-08-26T04:44:41.242Z,42.71
2022-08-26T04:47:13.639Z,42.29
2022-08-26T04:49:45.713Z,41.70
2022-08-26T04:52:18.102Z,41.59
2022-08-26T04:54:50.172Z,41.08
2022-08-26T04:57:23.466Z,40.81
2022-08-26T04:59:56.187Z,40.72
2022-08-26T05:02:28.757Z,40.63
2022-08-26T05:05:00.943Z,40.47
2022-08-26T05:07:33.138Z,40.02
2022-08-26T05:10:08.742Z,39.71
2022-08-26T05:12:41.076Z,39.28
2022-08-26T05:15:16.520Z,38.65
2022-08-26T05:17:51.071Z,37.80
2022-08-26T05:20:26.061Z,37.03
2022-08-26T05:23:00.688Z,35.73
2022-08-26T05:25:33.718Z,34.71
2022-08-26T05:28:06.151Z,33.98
2022-08-26T05:30:38.929Z,33.25
2022-08-26T05:33:11.992Z,32.64
2022-08-26T05:35:45.442Z,31.55
2022-08-26T05:38:20.270Z,30.92
2022-08-26T05:40:53.288Z,30.41
2022-08-26T05:43:25.507Z,29.69
2022-08-26T05:45:58.374Z,29.21
2022-08-26T05:48:31.139Z,29.35
2022-08-26T05:51:07.076Z,29.45
2022-08-26T05:53:43.782Z,29.48
2022-08-26T05:56:27.904Z,30.05
2022-08-26T05:59:02.410Z,29.81
2022-08-26T06:01:36.689Z,29.99
2022-08-26T06:04:09.769Z,30.48
2022-08-26T06:06:43.185Z,30.30
2022-08-26T06:09:17.473Z,30.11
2022-08-26T06:11:50.533Z,29.78
2022-08-26T06:14:23.163Z,29.83
2022-08-26T06:16:55.347Z,29.81
2022-08-26T06:19:33.087Z,29.17
2022-08-26T06:22:26.871Z,28.85
2022-08-26T06:25:16.342Z,28.08
2022-08-26T06:27:48.998Z,27.69
2022-08-26T06:30:22.703Z,27.42
2022-08-26T06:32:57.721Z,26.90
2022-08-26T06:35:30.087Z,26.53
2022-08-26T06:38:03.419Z,26.65
2022-08-26T06:40:36.687Z,26.84
2022-08-26T06:43:10.401Z,26.52
2022-08-26T06:45:44.864Z,26.38
2022-08-26T06:48:19.316Z,26.31
2022-08-26T06:50:51.410Z,26.61
2022-08-26T06:53:23.634Z,26.39
2022-08-26T06:55:55.663Z,26.48
2022-08-26T06:58:28.986Z,26.05
2022-08-26T07:01:09.117Z,25.76
2022-08-26T07:03:43.696Z,25.64
2022-08-26T07:06:19.825Z,25.29
2022-08-26T07:08:53.746Z,25.30
2022-08-26T07:11:26.086Z,25.01
2022-08-26T07:14:00.261Z,24.76
2022-08-26T07:16:33.139Z,24.32
2022-08-26T07:19:10.937Z,23.25
2022-08-26T07:21:44.199Z,22.78
2022-08-26T07:24:16.352Z,22.76
2022-08-26T07:26:48.615Z,22.19
2022-08-26T07:29:24.437Z,21.70
2022-08-26T07:31:58.444Z,21.41
2022-08-26T07:34:32.263Z,21.45
2022-08-26T07:37:06.336Z,21.23
2022-08-26T07:39:42.068Z,20.72
2022-08-26T07:42:19.753Z,20.47
2022-08-26T07:44:51.791Z,19.87
2022-08-26T07:47:25.781Z,19.44
2022-08-26T07:50:00.737Z,18.86
2022-08-26T07:52:33.783Z,18.79
2022-08-26T07:55:08.720Z,18.74
2022-08-26T07:57:40.947Z,18.27
2022-08-26T08:00:17.676Z,17.85
2022-08-26T08:02:49.807Z,17.78
2022-08-26T08:05:33.358Z,17.65
2022-08-26T08:08:26.329Z,17.13
2022-08-26T08:11:00.479Z,16.65
2022-08-26T08:13:32.796Z,16.47
2022-08-26T08:16:07.066Z,16.17
2022-08-26T08:18:45.064Z,15.71
2022-08-26T08:21:21.217Z,15.49
2022-08-26T08:23:55.450Z,15.36
2022-08-26T08:26:29.194Z,15.42
2022-08-26T08:29:01.262Z,15.68
2022-08-26T08:34:29.851Z,15.16
2022-08-26T08:37:01.931Z,15.86
2022-08-26T08:39:35.755Z,15.48
2022-08-26T08:42:38.004Z,14.69
2022-08-26T08:45:15.503Z,14.81
2022-08-26T08:47:54.721Z,15.09
2022-08-26T08:50:31.087Z,15.98
2022-08-26T08:53:13.763Z,16.05
2022-08-26T08:55:59.546Z,16.38
2022-08-26T08:58:43.756Z,17.04
2022-08-26T09:01:26.038Z,17.29
2022-08-26T09:04:19.336Z,18.36
2022-08-26T09:09:36.502Z,17.80
2022-08-26T09:12:12.849Z,18.35
2022-08-26T09:14:46.530Z,18.44
2022-08-26T09:17:33.703Z,18.22
2022-08-26T09:20:13.454Z,18.69
2022-08-26T09:22:45.620Z,18.66
2022-08-26T09:25:18.637Z,18.43
2022-08-26T09:27:52.889Z,18.39
2022-08-26T09:30:28.787Z,18.96
2022-08-26T09:33:10.170Z,19.16
2022-08-26T09:35:47.509Z,19.07
2022-08-26T09:38:29.356Z,19.38
2022-08-26T09:41:05.117Z,18.99
2022-08-26T09:43:37.632Z,18.94
2022-08-26T09:46:19.695Z,19.50
2022-08-26T09:48:53.191Z,19.45
2022-08-26T09:51:35.577Z,19.67
2022-08-26T09:54:08.249Z,19.96
2022-08-26T09:56:41.282Z,20.04
2022-08-26T09:59:14.936Z,20.56
2022-08-26T10:01:51.207Z,20.64
2022-08-26T10:04:27.268Z,20.99
2022-08-26T10:07:02.043Z,21.99
2022-08-26T10:09:38.865Z,22.33
2022-08-26T10:12:14.620Z,22.65
2022-08-26T10:14:52.404Z,23.09
2022-08-26T10:17:31.709Z,23.30
2022-08-26T10:20:23.169Z,23.28
2022-08-26T10:23:00.586Z,23.57
2022-08-26T10:25:39.253Z,24.00
2022-08-26T10:28:23.835Z,23.84
2022-08-26T10:31:01.885Z,24.03
2022-08-26T10:33:34.258Z,23.75
2022-08-26T10:36:39.343Z,23.42
2022-08-26T10:39:21.277Z,23.25
2022-08-26T10:41:58.290Z,23.72
2022-08-26T10:44:35.511Z,22.72
2022-08-26T10:47:16.850Z,22.38
2022-08-26T10:49:50.643Z,23.68
2022-08-26T10:52:29.508Z,23.89
2022-08-26T10:55:12.161Z,23.86
2022-08-26T10:57:52.658Z,23.76
2022-08-26T11:00:46.951Z,23.61
2022-08-26T11:03:34.537Z,23.58
2022-08-26T11:06:28.269Z,23.60
2022-08-26T11:09:03.201Z,23.68
2022-08-26T11:11:53.010Z,23.26
2022-08-26T11:14:46.226Z,23.66
2022-08-26T11:17:57.533Z,22.92
2022-08-26T11:20:41.826Z,22.56
2022-08-26T11:23:50.346Z,22.37
2022-08-26T11:26:56.004Z,22.57
2022-08-26T11:30:03.330Z,23.14
2022-08-26T11:32:50.623Z,22.61
2022-08-26T11:35:52.337Z,22.82
2022-08-26T11:38:30.636Z,23.09
2022-08-26T11:41:13.305Z,23.30
2022-08-26T11:43:47.607Z,23.98
2022-08-26T11:46:28.747Z,23.40
2022-08-26T11:49:06.589Z,24.02
2022-08-26T11:51:40.573Z,24.28
2022-08-26T11:54:16.342Z,23.84
2022-08-26T11:56:51.043Z,23.87
2022-08-26T12:02:19.182Z,23.60
2022-08-26T12:04:53.051Z,24.42
2022-08-26T12:07:29.089Z,24.26
2022-08-26T12:10:05.274Z,23.95
2022-08-26T12:12:40.463Z,23.64
2022-08-26T12:15:18.833Z,23.64
2022-08-26T12:17:54.615Z,23.78
2022-08-26T12:20:48.356Z,23.43
2022-08-26T12:23:44.381Z,22.67
2022-08-26T12:26:23.938Z,21.60
2022-08-26T12:28:59.265Z,21.25
2022-08-26T12:31:37.008Z,21.46
2022-08-26T12:34:17.902Z,20.95
2022-08-26T12:36:53.684Z,21.24
2022-08-26T12:39:31.381Z,21.66
2022-08-26T12:42:08.038Z,21.61
2022-08-26T12:44:54.171Z,21.98
2022-08-26T12:47:42.245Z,22.01
2022-08-26T12:50:24.941Z,22.21
2022-08-26T12:53:02.113Z,21.92
2022-08-26T12:55:43.833Z,21.86
2022-08-26T12:58:26.027Z,21.47
2022-08-26T13:01:19.128Z,21.87
2022-08-26T13:03:52.102Z,21.77
2022-08-26T13:06:32.804Z,21.79
2022-08-26T13:09:26.349Z,21.94
2022-08-26T13:12:02.305Z,21.49
2022-08-26T13:14:33.333Z,21.99
2022-08-26T13:17:05.472Z,22.83
2022-08-26T13:19:37.567Z,23.16
2022-08-26T13:22:12.817Z,22.98
2022-08-26T13:24:45.949Z,22.77
2022-08-26T13:27:20.833Z,22.66
2022-08-26T13:29:53.283Z,22.73
2022-08-26T13:32:27.608Z,22.64
2022-08-26T13:35:00.378Z,22.99
2022-08-26T13:37:38.066Z,22.91
2022-08-26T13:40:13.293Z,22.95
2022-08-26T13:42:49.919Z,23.29
2022-08-26T13:45:22.442Z,23.51
2022-08-26T13:47:54.541Z,23.73
2022-08-26T13:50:26.990Z,23.67
2022-08-26T13:52:59.354Z,23.73
2022-08-26T13:55:31.747Z,23.93
2022-08-26T13:58:03.909Z,24.22
2022-08-26T14:00:38.068Z,24.36
2022-08-26T14:03:13.414Z,24.30
2022-08-26T14:05:45.808Z,24.43
2022-08-26T14:08:18.208Z,24.52
2022-08-26T14:10:50.793Z,24.41
2022-08-26T14:13:23.109Z,24.51
2022-08-26T14:15:56.708Z,24.45
2022-08-26T14:18:36.332Z,24.57
2022-08-26T14:21:15.279Z,24.79
2022-08-26T14:23:47.784Z,24.82
2022-08-26T14:26:28.603Z,24.95
2022-08-26T14:29:04.153Z,24.82
2022-08-26T14:31:38.065Z,25.14
2022-08-26T14:34:10.894Z,25.59
2022-08-26T14:36:43.681Z,25.56
2022-08-26T14:39:16.776Z,25.73
2022-08-26T14:41:54.049Z,25.59
2022-08-26T14:44:29.963Z,25.80
2022-08-26T14:47:06.231Z,25.90
2022-08-26T14:49:39.360Z,25.64
2022-08-26T14:52:11.639Z,25.35
2022-08-26T14:54:43.777Z,25.29
2022-08-26T14:57:17.215Z,24.87
2022-08-26T14:59:50.639Z,24.77
2022-08-26T15:02:32.476Z,24.51
2022-08-26T15:05:08.638Z,24.49
2022-08-26T15:07:41.200Z,24.50
2022-08-26T15:10:15.804Z,24.44
2022-08-26T15:12:48.166Z,24.74
2022-08-26T15:15:21.078Z,24.75
2022-08-26T15:17:53.468Z,24.94
2022-08-26T15:20:25.677Z,24.71
2022-08-26T15:22:59.001Z,24.70
2022-08-26T15:25:38.167Z,24.75
2022-08-26T15:28:10.379Z,24.66
2022-08-26T15:30:43.298Z,24.86
2022-08-26T15:33:16.972Z,25.06
2022-08-26T15:35:49.237Z,25.26
2022-08-26T15:38:21.437Z,25.07
2022-08-26T15:40:53.566Z,25.08
2022-08-26T15:43:29.292Z,25.38
2022-08-26T15:46:01.812Z,25.56
2022-08-26T15:48:34.071Z,25.49
2022-08-26T15:51:07.441Z,25.71
2022-08-26T15:53:39.630Z,25.60
2022-08-26T15:56:11.808Z,25.62
2022-08-26T15:58:44.060Z,25.60
2022-08-26T16:01:18.208Z,25.60
2022-08-26T16:04:00.410Z,25.56
2022-08-26T16:06:34.956Z,25.73
2022-08-26T16:09:37.952Z,25.73
2022-08-26T16:12:11.062Z,25.60
2022-08-26T16:14:46.777Z,25.64
2022-08-26T16:17:19.929Z,25.76
2022-08-26T16:19:52.569Z,25.95
2022-08-26T16:22:25.648Z,26.04
2022-08-26T16:25:01.547Z,26.09
2022-08-26T16:27:33.856Z,26.12
2022-08-26T16:30:07.943Z,26.03
2022-08-26T16:32:40.196Z,26.17
2022-08-26T16:35:12.816Z,26.23
2022-08-26T16:37:46.100Z,26.06
2022-08-26T16:40:19.440Z,26.19
2022-08-26T16:42:51.937Z,26.29
2022-08-26T16:45:25.615Z,26.40
2022-08-26T16:47:59.418Z,26.49
2022-08-26T16:50:32.070Z,26.55
2022-08-26T16:53:04.854Z,26.59
2022-08-26T16:55:38.251Z,26.65
2022-08-26T16:58:10.512Z,26.83
2022-08-26T17:00:43.557Z,26.72
2022-08-26T17:03:16.156Z,26.95
2022-08-26T17:05:48.777Z,26.88
2022-08-26T17:08:27.442Z,26.94
2022-08-26T17:11:03.676Z,26.93
2022-08-26T17:13:36.861Z,26.90
2022-08-26T17:16:11.796Z,27.06
2022-08-26T17:18:44.871Z,26.95
2022-08-26T17:21:17.744Z,27.14
2022-08-26T17:23:50.423Z,27.13
2022-08-26T17:26:23.450Z,27.11
2022-08-26T17:28:57.228Z,27.23
2022-08-26T17:31:29.583Z,27.37
2022-08-26T17:34:04.205Z,27.51
2022-08-26T17:36:36.326Z,27.49
2022-08-26T17:39:08.672Z,27.65
2022-08-26T17:41:41.483Z,27.53
2022-08-26T17:44:13.752Z,27.53
2022-08-26T17:46:45.884Z,27.70
2022-08-26T17:49:18.061Z,27.70
2022-08-26T17:51:50.333Z,27.80
2022-08-26T17:54:22.530Z,27.95
2022-08-26T17:56:55.133Z,27.99
2022-08-26T17:59:30.524Z,28.32
2022-08-26T18:02:03.047Z,28.30
2022-08-26T18:04:35.301Z,28.34
2022-08-26T18:07:10.605Z,28.62
2022-08-26T18:09:46.320Z,28.81
2022-08-26T18:12:18.359Z,28.80
2022-08-26T18:14:50.553Z,28.88
2022-08-26T18:17:22.995Z,29.10
2022-08-26T18:19:55.136Z,29.20
2022-08-26T18:22:27.870Z,29.32
2022-08-26T18:24:59.881Z,29.42
2022-08-26T18:27:31.936Z,29.69
2022-08-26T18:30:04.625Z,29.80
2022-08-26T18:32:36.789Z,29.66
2022-08-26T18:35:21.200Z,29.86
2022-08-26T18:38:01.432Z,29.63
2022-08-26T18:40:51.345Z,29.60
2022-08-26T18:43:26.351Z,29.84
2022-08-26T18:46:06.795Z,30.11
2022-08-26T18:48:40.168Z,29.91
2022-08-26T18:51:19.408Z,30.13
2022-08-26T18:53:54.141Z,30.09
2022-08-26T18:56:26.598Z,30.27
2022-08-26T18:59:03.892Z,30.24
2022-08-26T19:01:37.723Z,30.34
2022-08-26T19:04:15.686Z,30.48
2022-08-26T19:06:50.843Z,30.59
2022-08-26T19:09:27.414Z,30.83
2022-08-26T19:12:07.098Z,30.97
2022-08-26T19:14:41.862Z,31.01
2022-08-26T19:17:14.427Z,31.20
2022-08-26T19:19:55.389Z,31.53
2022-08-26T19:22:40.665Z,31.37
2022-08-26T19:25:13.905Z,31.79
2022-08-26T19:27:46.211Z,31.80
2022-08-26T19:30:20.087Z,31.77
2022-08-26T19:32:52.387Z,31.93
2022-08-26T19:35:24.409Z,32.01
2022-08-26T19:37:59.034Z,32.22
2022-08-26T19:40:32.008Z,32.48
2022-08-26T19:43:04.903Z,32.35
2022-08-26T19:45:38.937Z,32.27
2022-08-26T19:48:15.887Z,32.43
2022-08-26T19:50:48.078Z,32.65
2022-08-26T19:53:20.248Z,32.58
2022-08-26T19:55:52.526Z,32.93
2022-08-26T19:58:24.744Z,32.77
2022-08-26T20:00:57.058Z,32.99
2022-08-26T20:03:29.418Z,33.04
2022-08-26T20:06:01.482Z,33.18
2022-08-26T20:08:34.022Z,33.19
2022-08-26T20:11:11.304Z,33.29
2022-08-26T20:13:44.431Z,33.36
2022-08-26T20:16:17.712Z,33.24
2022-08-26T20:19:07.679Z,33.70
2022-08-26T20:21:46.832Z,33.74
2022-08-26T20:24:21.310Z,33.76
2022-08-26T20:26:53.579Z,33.97
2022-08-26T20:29:26.107Z,33.90
2022-08-26T20:31:58.926Z,34.07
2022-08-26T20:34:35.675Z,34.29
2022-08-26T20:37:09.320Z,34.01
2022-08-26T20:39:42.445Z,34.23
2022-08-26T20:42:20.064Z,34.45
2022-08-26T20:44:56.143Z,34.62
2022-08-26T20:47:31.424Z,34.87
2022-08-26T20:50:03.784Z,34.77
2022-08-26T20:52:36.195Z,35.07
2022-08-26T20:55:10.154Z,35.09
2022-08-26T20:57:46.111Z,35.19
2022-08-26T21:00:26.595Z,35.40
2022-08-26T21:03:07.789Z,35.47
2022-08-26T21:05:40.038Z,35.76
2022-08-26T21:08:13.427Z,36.13
2022-08-26T21:10:46.287Z,36.04
2022-08-26T21:13:21.102Z,36.53
2022-08-26T21:15:56.533Z,36.62
2022-08-26T21:18:29.265Z,36.93
2022-08-26T21:21:04.275Z,37.16
2022-08-26T21:23:37.670Z,37.37
2022-08-26T21:26:13.476Z,37.51
2022-08-26T21:28:46.796Z,37.86
2022-08-26T21:31:23.905Z,37.88
2022-08-26T21:33:56.223Z,38.16
2022-08-26T21:36:28.555Z,38.28
2022-08-26T21:39:01.580Z,38.34
2022-08-26T21:41:33.833Z,38.53
2022-08-26T21:44:06.872Z,38.65
2022-08-26T21:46:39.363Z,38.90
2022-08-26T21:49:13.703Z,39.05
2022-08-26T21:51:47.987Z,39.25
2022-08-26T21:54:20.221Z,39.68
2022-08-26T21:56:52.467Z,39.67
2022-08-26T21:59:24.790Z,40.02
2022-08-26T22:01:57.393Z,40.21
2022-08-26T22:04:30.374Z,40.15
2022-08-26T22:07:03.579Z,40.16
2022-08-26T22:09:35.969Z,40.31
2022-08-26T22:12:13.179Z,40.48
2022-08-26T22:14:45.721Z,40.61
2022-08-26T22:17:18.012Z,40.68
2022-08-26T22:19:51.259Z,40.80
2022-08-26T22:22:24.357Z,40.98
2022-08-26T22:24:56.852Z,41.22
2022-08-26T22:27:29.139Z,41.37
2022-08-26T22:30:01.386Z,41.52
2022-08-26T22:32:34.817Z,41.55
2022-08-26T22:35:11.326Z,41.55
2022-08-26T22:38:00.879Z,41.79
2022-08-26T22:40:34.124Z,41.87
2022-08-26T22:43:06.944Z,41.88
2022-08-26T22:45:44.278Z,42.00
2022-08-26T22:48:19.257Z,42.18
2022-08-26T22:50:58.292Z,42.27
2022-08-26T22:53:35.214Z,42.41
2022-08-26T22:56:08.785Z,42.55
2022-08-26T22:58:41.672Z,42.61
2022-08-26T23:01:14.246Z,42.73
2022-08-26T23:03:46.966Z,42.86
2022-08-26T23:06:19.262Z,42.85
2022-08-26T23:08:52.201Z,42.96
2022-08-26T23:11:24.471Z,42.96
2022-08-26T23:13:56.644Z,43.12
2022-08-26T23:16:29.442Z,43.12
2022-08-26T23:19:09.266Z,43.27
2022-08-26T23:21:42.086Z,43.45
2022-08-26T23:24:14.804Z,43.70
2022-08-26T23:26:47.804Z,43.92
2022-08-26T23:29:20.060Z,44.09
2022-08-26T23:31:52.260Z,44.15
2022-08-26T23:34:41.848Z,44.35
2022-08-26T23:37:14.694Z,44.48
2022-08-26T23:39:47.551Z,44.70
2022-08-26T23:42:19.986Z,44.83
2022-08-26T23:44:52.781Z,45.07
2022-08-26T23:47:25.472Z,45.19
2022-08-26T23:49:57.812Z,45.30
2022-08-26T23:52:47.560Z,45.46
2022-08-26T23:55:20.585Z,45.68
2022-08-26T23:57:52.824Z,45.83
